sensor_id;sensor_type;location;lat;lon;timestamp;temperature;humidity
2763;DHT22;1389;51.490;7.338;2023-04-25T00:01:48;8.10;84.10
2763;DHT22;1389;51.490;7.338;2023-04-25T00:04:14;8.10;84.10
2763;DHT22;1389;51.490;7.338;2023-04-25T00:06:40;8.10;84.20
2763;DHT22;1389;51.490;7.338;2023-04-25T00:09:06;8.10;84.20
2763;DHT22;1389;51.490;7.338;2023-04-25T00:11:37;8.10;84.20
2763;DHT22;1389;51.490;7.338;2023-04-25T00:14:04;8.10;83.80
2763;DHT22;1389;51.490;7.338;2023-04-25T00:16:30;8.20;83.60
2763;DHT22;1389;51.490;7.338;2023-04-25T00:18:59;8.10;84.00
2763;DHT22;1389;51.490;7.338;2023-04-25T00:21:25;8.10;84.10
2763;DHT22;1389;51.490;7.338;2023-04-25T00:23:52;8.10;84.10
2763;DHT22;1389;51.490;7.338;2023-04-25T00:26:18;8.10;84.20
2763;DHT22;1389;51.490;7.338;2023-04-25T00:28:47;8.20;83.90
2763;DHT22;1389;51.490;7.338;2023-04-25T00:31:13;8.20;83.90
2763;DHT22;1389;51.490;7.338;2023-04-25T00:36:06;8.20;84.10
2763;DHT22;1389;51.490;7.338;2023-04-25T00:38:33;8.20;83.90
2763;DHT22;1389;51.490;7.338;2023-04-25T00:40:59;8.20;84.20
2763;DHT22;1389;51.490;7.338;2023-04-25T00:43:28;8.20;84.40
2763;DHT22;1389;51.490;7.338;2023-04-25T00:45:56;8.20;84.80
2763;DHT22;1389;51.490;7.338;2023-04-25T00:48:23;8.20;84.80
2763;DHT22;1389;51.490;7.338;2023-04-25T00:50:54;8.20;84.80
2763;DHT22;1389;51.490;7.338;2023-04-25T00:53:21;8.20;84.90
2763;DHT22;1389;51.490;7.338;2023-04-25T00:55:48;8.20;85.00
2763;DHT22;1389;51.490;7.338;2023-04-25T00:58:17;8.20;85.20
2763;DHT22;1389;51.490;7.338;2023-04-25T01:00:48;8.20;85.20
2763;DHT22;1389;51.490;7.338;2023-04-25T01:03:15;8.20;85.20
2763;DHT22;1389;51.490;7.338;2023-04-25T01:05:46;8.20;84.90
2763;DHT22;1389;51.490;7.338;2023-04-25T01:08:13;8.20;85.10
2763;DHT22;1389;51.490;7.338;2023-04-25T01:10:39;8.20;85.20
2763;DHT22;1389;51.490;7.338;2023-04-25T01:13:06;8.20;85.60
2763;DHT22;1389;51.490;7.338;2023-04-25T01:15:32;8.20;85.90
2763;DHT22;1389;51.490;7.338;2023-04-25T01:17:58;8.10;86.50
2763;DHT22;1389;51.490;7.338;2023-04-25T01:20:26;8.20;86.60
2763;DHT22;1389;51.490;7.338;2023-04-25T01:22:54;8.20;86.60
2763;DHT22;1389;51.490;7.338;2023-04-25T01:25:22;8.20;86.80
2763;DHT22;1389;51.490;7.338;2023-04-25T01:27:48;8.20;87.10
2763;DHT22;1389;51.490;7.338;2023-04-25T01:30:14;8.20;87.10
2763;DHT22;1389;51.490;7.338;2023-04-25T01:32:41;8.20;87.30
2763;DHT22;1389;51.490;7.338;2023-04-25T01:35:10;8.20;87.00
2763;DHT22;1389;51.490;7.338;2023-04-25T01:37:40;8.20;87.30
2763;DHT22;1389;51.490;7.338;2023-04-25T01:40:08;8.20;87.50
2763;DHT22;1389;51.490;7.338;2023-04-25T01:42:36;8.20;87.60
2763;DHT22;1389;51.490;7.338;2023-04-25T01:45:02;8.10;88.40
2763;DHT22;1389;51.490;7.338;2023-04-25T01:47:28;8.10;88.40
2763;DHT22;1389;51.490;7.338;2023-04-25T01:49:55;8.10;88.60
2763;DHT22;1389;51.490;7.338;2023-04-25T01:52:21;8.00;88.90
2763;DHT22;1389;51.490;7.338;2023-04-25T01:54:47;8.00;89.20
2763;DHT22;1389;51.490;7.338;2023-04-25T01:57:14;8.10;89.20
2763;DHT22;1389;51.490;7.338;2023-04-25T01:59:41;8.00;89.10
2763;DHT22;1389;51.490;7.338;2023-04-25T02:02:07;8.00;89.10
2763;DHT22;1389;51.490;7.338;2023-04-25T02:04:33;7.90;89.50
2763;DHT22;1389;51.490;7.338;2023-04-25T02:06:59;8.00;89.70
2763;DHT22;1389;51.490;7.338;2023-04-25T02:09:25;8.00;89.70
2763;DHT22;1389;51.490;7.338;2023-04-25T02:11:53;8.00;89.60
2763;DHT22;1389;51.490;7.338;2023-04-25T02:14:19;8.10;89.70
2763;DHT22;1389;51.490;7.338;2023-04-25T02:16:45;8.10;89.70
2763;DHT22;1389;51.490;7.338;2023-04-25T02:19:12;8.00;89.40
2763;DHT22;1389;51.490;7.338;2023-04-25T02:21:38;8.00;89.50
2763;DHT22;1389;51.490;7.338;2023-04-25T02:24:04;8.00;89.50
2763;DHT22;1389;51.490;7.338;2023-04-25T02:26:30;8.00;89.70
2763;DHT22;1389;51.490;7.338;2023-04-25T02:28:57;8.00;89.60
2763;DHT22;1389;51.490;7.338;2023-04-25T02:31:23;8.00;89.70
2763;DHT22;1389;51.490;7.338;2023-04-25T02:33:49;8.00;89.60
2763;DHT22;1389;51.490;7.338;2023-04-25T02:36:15;8.00;89.60
2763;DHT22;1389;51.490;7.338;2023-04-25T02:38:41;8.00;89.60
2763;DHT22;1389;51.490;7.338;2023-04-25T02:41:07;8.00;89.60
2763;DHT22;1389;51.490;7.338;2023-04-25T02:43:33;8.00;89.60
2763;DHT22;1389;51.490;7.338;2023-04-25T02:45:59;8.00;89.60
2763;DHT22;1389;51.490;7.338;2023-04-25T02:48:25;7.90;89.90
2763;DHT22;1389;51.490;7.338;2023-04-25T02:50:51;7.90;89.80
2763;DHT22;1389;51.490;7.338;2023-04-25T02:53:17;7.90;89.90
2763;DHT22;1389;51.490;7.338;2023-04-25T02:55:43;7.90;90.20
2763;DHT22;1389;51.490;7.338;2023-04-25T02:58:09;7.80;90.70
2763;DHT22;1389;51.490;7.338;2023-04-25T03:00:36;7.80;90.70
2763;DHT22;1389;51.490;7.338;2023-04-25T03:03:02;7.90;90.60
2763;DHT22;1389;51.490;7.338;2023-04-25T03:05:28;7.90;90.50
2763;DHT22;1389;51.490;7.338;2023-04-25T03:07:54;7.80;90.50
2763;DHT22;1389;51.490;7.338;2023-04-25T03:10:20;7.80;90.70
2763;DHT22;1389;51.490;7.338;2023-04-25T03:12:46;7.90;90.70
2763;DHT22;1389;51.490;7.338;2023-04-25T03:15:12;7.90;90.80
2763;DHT22;1389;51.490;7.338;2023-04-25T03:17:38;7.90;90.70
2763;DHT22;1389;51.490;7.338;2023-04-25T03:20:05;7.90;90.80
2763;DHT22;1389;51.490;7.338;2023-04-25T03:22:31;7.90;90.60
2763;DHT22;1389;51.490;7.338;2023-04-25T03:24:57;7.90;90.50
2763;DHT22;1389;51.490;7.338;2023-04-25T03:27:23;7.80;90.30
2763;DHT22;1389;51.490;7.338;2023-04-25T03:29:49;7.80;90.40
2763;DHT22;1389;51.490;7.338;2023-04-25T03:32:15;7.80;90.80
2763;DHT22;1389;51.490;7.338;2023-04-25T03:34:41;7.80;90.80
2763;DHT22;1389;51.490;7.338;2023-04-25T03:37:07;7.70;91.00
2763;DHT22;1389;51.490;7.338;2023-04-25T03:39:33;7.80;91.00
2763;DHT22;1389;51.490;7.338;2023-04-25T03:41:59;7.80;90.90
2763;DHT22;1389;51.490;7.338;2023-04-25T03:44:26;7.80;90.70
2763;DHT22;1389;51.490;7.338;2023-04-25T03:46:52;7.80;90.70
2763;DHT22;1389;51.490;7.338;2023-04-25T03:49:18;7.80;90.70
2763;DHT22;1389;51.490;7.338;2023-04-25T03:51:44;7.80;90.80
2763;DHT22;1389;51.490;7.338;2023-04-25T03:54:11;7.80;90.50
2763;DHT22;1389;51.490;7.338;2023-04-25T03:56:37;7.80;90.80
2763;DHT22;1389;51.490;7.338;2023-04-25T03:59:03;7.80;90.80
2763;DHT22;1389;51.490;7.338;2023-04-25T04:01:29;7.80;90.70
2763;DHT22;1389;51.490;7.338;2023-04-25T04:03:55;7.80;90.70
2763;DHT22;1389;51.490;7.338;2023-04-25T04:06:21;7.80;90.70
2763;DHT22;1389;51.490;7.338;2023-04-25T04:08:47;7.80;90.70
2763;DHT22;1389;51.490;7.338;2023-04-25T04:11:13;7.80;90.90
2763;DHT22;1389;51.490;7.338;2023-04-25T04:13:39;7.80;91.40
2763;DHT22;1389;51.490;7.338;2023-04-25T04:16:05;7.80;91.40
2763;DHT22;1389;51.490;7.338;2023-04-25T04:18:31;7.70;90.50
2763;DHT22;1389;51.490;7.338;2023-04-25T04:20:59;7.30;89.10
2763;DHT22;1389;51.490;7.338;2023-04-25T04:23:25;7.20;89.40
2763;DHT22;1389;51.490;7.338;2023-04-25T04:25:53;7.10;90.10
2763;DHT22;1389;51.490;7.338;2023-04-25T04:28:20;7.00;90.20
2763;DHT22;1389;51.490;7.338;2023-04-25T04:30:46;6.90;90.20
2763;DHT22;1389;51.490;7.338;2023-04-25T04:33:12;6.90;90.20
2763;DHT22;1389;51.490;7.338;2023-04-25T04:35:39;6.80;90.20
2763;DHT22;1389;51.490;7.338;2023-04-25T04:38:05;6.80;90.20
2763;DHT22;1389;51.490;7.338;2023-04-25T04:40:31;6.70;90.80
2763;DHT22;1389;51.490;7.338;2023-04-25T04:42:57;6.70;90.80
2763;DHT22;1389;51.490;7.338;2023-04-25T04:45:24;6.70;91.00
2763;DHT22;1389;51.490;7.338;2023-04-25T04:47:50;6.70;91.10
2763;DHT22;1389;51.490;7.338;2023-04-25T04:50:16;6.80;90.80
2763;DHT22;1389;51.490;7.338;2023-04-25T04:52:42;6.70;90.80
2763;DHT22;1389;51.490;7.338;2023-04-25T04:55:08;6.80;90.80
2763;DHT22;1389;51.490;7.338;2023-04-25T04:57:34;6.70;91.00
2763;DHT22;1389;51.490;7.338;2023-04-25T05:00:01;6.80;91.00
2763;DHT22;1389;51.490;7.338;2023-04-25T05:02:27;6.80;90.80
2763;DHT22;1389;51.490;7.338;2023-04-25T05:04:55;6.80;90.60
2763;DHT22;1389;51.490;7.338;2023-04-25T05:07:21;6.90;90.40
2763;DHT22;1389;51.490;7.338;2023-04-25T05:09:47;6.90;90.40
2763;DHT22;1389;51.490;7.338;2023-04-25T05:12:13;6.90;90.30
2763;DHT22;1389;51.490;7.338;2023-04-25T05:14:39;6.90;90.50
2763;DHT22;1389;51.490;7.338;2023-04-25T05:17:05;7.00;90.60
2763;DHT22;1389;51.490;7.338;2023-04-25T05:19:34;6.90;90.10
2763;DHT22;1389;51.490;7.338;2023-04-25T05:22:00;7.00;89.90
2763;DHT22;1389;51.490;7.338;2023-04-25T05:24:26;7.00;89.80
2763;DHT22;1389;51.490;7.338;2023-04-25T05:26:52;7.00;89.90
2763;DHT22;1389;51.490;7.338;2023-04-25T05:29:18;7.00;90.00
2763;DHT22;1389;51.490;7.338;2023-04-25T05:31:45;7.00;90.00
2763;DHT22;1389;51.490;7.338;2023-04-25T05:34:11;7.00;89.90
2763;DHT22;1389;51.490;7.338;2023-04-25T05:36:37;7.10;89.40
2763;DHT22;1389;51.490;7.338;2023-04-25T05:39:03;7.10;89.30
2763;DHT22;1389;51.490;7.338;2023-04-25T05:41:30;7.10;89.30
2763;DHT22;1389;51.490;7.338;2023-04-25T05:43:56;7.20;89.40
2763;DHT22;1389;51.490;7.338;2023-04-25T05:46:22;7.30;89.50
2763;DHT22;1389;51.490;7.338;2023-04-25T05:48:48;7.30;89.20
2763;DHT22;1389;51.490;7.338;2023-04-25T05:51:14;7.30;89.30
2763;DHT22;1389;51.490;7.338;2023-04-25T05:53:40;7.30;89.50
2763;DHT22;1389;51.490;7.338;2023-04-25T05:56:06;7.40;89.30
2763;DHT22;1389;51.490;7.338;2023-04-25T05:58:32;7.40;89.30
2763;DHT22;1389;51.490;7.338;2023-04-25T06:00:58;7.40;89.30
2763;DHT22;1389;51.490;7.338;2023-04-25T06:03:24;7.40;89.40
2763;DHT22;1389;51.490;7.338;2023-04-25T06:08:16;7.50;89.80
2763;DHT22;1389;51.490;7.338;2023-04-25T06:10:42;7.50;89.90
2763;DHT22;1389;51.490;7.338;2023-04-25T06:13:08;7.50;89.90
2763;DHT22;1389;51.490;7.338;2023-04-25T06:15:34;7.60;89.90
2763;DHT22;1389;51.490;7.338;2023-04-25T06:18:01;7.60;90.00
2763;DHT22;1389;51.490;7.338;2023-04-25T06:20:27;7.60;90.10
2763;DHT22;1389;51.490;7.338;2023-04-25T06:22:53;7.60;90.00
2763;DHT22;1389;51.490;7.338;2023-04-25T06:25:19;7.70;90.30
2763;DHT22;1389;51.490;7.338;2023-04-25T06:27:46;7.70;90.40
2763;DHT22;1389;51.490;7.338;2023-04-25T06:30:12;7.70;90.10
2763;DHT22;1389;51.490;7.338;2023-04-25T06:32:38;7.80;90.50
2763;DHT22;1389;51.490;7.338;2023-04-25T06:35:05;7.80;90.50
2763;DHT22;1389;51.490;7.338;2023-04-25T06:37:31;7.80;90.10
2763;DHT22;1389;51.490;7.338;2023-04-25T06:39:57;7.80;90.40
2763;DHT22;1389;51.490;7.338;2023-04-25T06:42:23;7.90;90.60
2763;DHT22;1389;51.490;7.338;2023-04-25T06:44:49;8.00;90.10
2763;DHT22;1389;51.490;7.338;2023-04-25T06:47:15;8.00;90.00
2763;DHT22;1389;51.490;7.338;2023-04-25T06:49:41;8.10;89.70
2763;DHT22;1389;51.490;7.338;2023-04-25T06:52:07;8.10;90.00
2763;DHT22;1389;51.490;7.338;2023-04-25T06:54:34;8.30;88.50
2763;DHT22;1389;51.490;7.338;2023-04-25T06:57:00;8.30;88.40
2763;DHT22;1389;51.490;7.338;2023-04-25T06:59:26;8.30;87.50
2763;DHT22;1389;51.490;7.338;2023-04-25T07:01:52;8.30;87.40
2763;DHT22;1389;51.490;7.338;2023-04-25T07:04:18;8.20;86.90
2763;DHT22;1389;51.490;7.338;2023-04-25T07:06:45;8.20;86.40
2763;DHT22;1389;51.490;7.338;2023-04-25T07:09:13;8.30;86.00
2763;DHT22;1389;51.490;7.338;2023-04-25T07:11:39;8.30;85.20
2763;DHT22;1389;51.490;7.338;2023-04-25T07:14:05;8.40;85.10
2763;DHT22;1389;51.490;7.338;2023-04-25T07:16:31;8.40;84.80
2763;DHT22;1389;51.490;7.338;2023-04-25T07:18:57;8.40;85.40
2763;DHT22;1389;51.490;7.338;2023-04-25T07:21:23;8.60;85.90
2763;DHT22;1389;51.490;7.338;2023-04-25T07:23:49;8.70;85.30
2763;DHT22;1389;51.490;7.338;2023-04-25T07:26:15;8.80;84.80
2763;DHT22;1389;51.490;7.338;2023-04-25T07:28:41;8.80;84.80
2763;DHT22;1389;51.490;7.338;2023-04-25T07:31:07;8.80;84.30
2763;DHT22;1389;51.490;7.338;2023-04-25T07:33:33;8.80;83.60
2763;DHT22;1389;51.490;7.338;2023-04-25T07:35:59;8.70;84.30
2763;DHT22;1389;51.490;7.338;2023-04-25T07:38:26;8.80;83.40
2763;DHT22;1389;51.490;7.338;2023-04-25T07:40:52;8.90;83.40
2763;DHT22;1389;51.490;7.338;2023-04-25T07:43:18;8.90;83.60
2763;DHT22;1389;51.490;7.338;2023-04-25T07:45:45;9.00;83.20
2763;DHT22;1389;51.490;7.338;2023-04-25T07:48:16;9.00;82.10
2763;DHT22;1389;51.490;7.338;2023-04-25T07:50:42;8.90;80.50
2763;DHT22;1389;51.490;7.338;2023-04-25T07:53:09;8.80;81.10
2763;DHT22;1389;51.490;7.338;2023-04-25T07:55:35;8.80;81.80
2763;DHT22;1389;51.490;7.338;2023-04-25T07:58:02;8.90;82.00
2763;DHT22;1389;51.490;7.338;2023-04-25T08:00:28;8.80;81.40
2763;DHT22;1389;51.490;7.338;2023-04-25T08:02:54;8.80;82.00
2763;DHT22;1389;51.490;7.338;2023-04-25T08:05:20;8.80;81.20
2763;DHT22;1389;51.490;7.338;2023-04-25T08:07:47;8.80;80.80
2763;DHT22;1389;51.490;7.338;2023-04-25T08:10:13;8.80;81.00
2763;DHT22;1389;51.490;7.338;2023-04-25T08:12:39;8.80;80.90
2763;DHT22;1389;51.490;7.338;2023-04-25T08:15:05;8.80;81.30
2763;DHT22;1389;51.490;7.338;2023-04-25T08:17:32;8.90;80.90
2763;DHT22;1389;51.490;7.338;2023-04-25T08:19:58;8.90;80.70
2763;DHT22;1389;51.490;7.338;2023-04-25T08:22:24;9.00;81.00
2763;DHT22;1389;51.490;7.338;2023-04-25T08:24:50;9.00;80.90
2763;DHT22;1389;51.490;7.338;2023-04-25T08:27:18;9.10;79.90
2763;DHT22;1389;51.490;7.338;2023-04-25T08:29:44;9.10;78.00
2763;DHT22;1389;51.490;7.338;2023-04-25T08:32:10;9.10;77.30
2763;DHT22;1389;51.490;7.338;2023-04-25T08:34:36;9.20;77.70
2763;DHT22;1389;51.490;7.338;2023-04-25T08:37:03;9.30;78.10
2763;DHT22;1389;51.490;7.338;2023-04-25T08:39:30;9.40;77.10
2763;DHT22;1389;51.490;7.338;2023-04-25T08:41:56;9.50;77.50
2763;DHT22;1389;51.490;7.338;2023-04-25T08:44:23;9.60;76.80
2763;DHT22;1389;51.490;7.338;2023-04-25T08:46:51;9.70;75.80
2763;DHT22;1389;51.490;7.338;2023-04-25T08:49:18;9.70;74.70
2763;DHT22;1389;51.490;7.338;2023-04-25T08:51:46;9.70;74.10
2763;DHT22;1389;51.490;7.338;2023-04-25T08:54:13;9.60;74.10
2763;DHT22;1389;51.490;7.338;2023-04-25T08:56:44;9.60;74.20
2763;DHT22;1389;51.490;7.338;2023-04-25T08:59:11;9.60;75.00
2763;DHT22;1389;51.490;7.338;2023-04-25T09:01:37;9.70;75.00
2763;DHT22;1389;51.490;7.338;2023-04-25T09:04:03;9.80;74.20
2763;DHT22;1389;51.490;7.338;2023-04-25T09:06:30;9.90;73.30
2763;DHT22;1389;51.490;7.338;2023-04-25T09:09:05;9.90;73.10
2763;DHT22;1389;51.490;7.338;2023-04-25T09:11:32;10.00;72.60
2763;DHT22;1389;51.490;7.338;2023-04-25T09:14:22;10.00;72.50
2763;DHT22;1389;51.490;7.338;2023-04-25T09:19:30;10.20;71.80
2763;DHT22;1389;51.490;7.338;2023-04-25T09:22:02;10.10;69.90
2763;DHT22;1389;51.490;7.338;2023-04-25T09:24:44;10.10;71.50
2763;DHT22;1389;51.490;7.338;2023-04-25T09:27:13;10.30;72.00
2763;DHT22;1389;51.490;7.338;2023-04-25T09:29:43;10.40;72.50
2763;DHT22;1389;51.490;7.338;2023-04-25T09:34:57;10.50;68.50
2763;DHT22;1389;51.490;7.338;2023-04-25T09:37:25;10.40;68.50
2763;DHT22;1389;51.490;7.338;2023-04-25T09:39:54;10.30;68.80
2763;DHT22;1389;51.490;7.338;2023-04-25T09:42:24;10.10;68.60
2763;DHT22;1389;51.490;7.338;2023-04-25T09:44:55;10.00;70.10
2763;DHT22;1389;51.490;7.338;2023-04-25T09:47:26;10.00;70.20
2763;DHT22;1389;51.490;7.338;2023-04-25T09:49:53;10.00;71.30
2763;DHT22;1389;51.490;7.338;2023-04-25T09:52:23;10.00;70.80
2763;DHT22;1389;51.490;7.338;2023-04-25T09:54:50;9.90;70.60
2763;DHT22;1389;51.490;7.338;2023-04-25T09:57:19;9.90;71.80
2763;DHT22;1389;51.490;7.338;2023-04-25T09:59:48;9.90;72.50
2763;DHT22;1389;51.490;7.338;2023-04-25T10:02:19;10.00;71.90
2763;DHT22;1389;51.490;7.338;2023-04-25T10:04:51;10.00;71.80
2763;DHT22;1389;51.490;7.338;2023-04-25T10:07:19;10.10;71.70
2763;DHT22;1389;51.490;7.338;2023-04-25T10:09:54;10.20;71.40
2763;DHT22;1389;51.490;7.338;2023-04-25T10:12:21;10.40;69.80
2763;DHT22;1389;51.490;7.338;2023-04-25T10:14:47;10.60;68.10
2763;DHT22;1389;51.490;7.338;2023-04-25T10:17:14;10.90;69.00
2763;DHT22;1389;51.490;7.338;2023-04-25T10:19:40;11.10;66.60
2763;DHT22;1389;51.490;7.338;2023-04-25T10:22:34;11.20;65.90
2763;DHT22;1389;51.490;7.338;2023-04-25T10:25:02;11.10;66.00
2763;DHT22;1389;51.490;7.338;2023-04-25T10:27:31;11.10;65.50
2763;DHT22;1389;51.490;7.338;2023-04-25T10:30:04;10.80;65.00
2763;DHT22;1389;51.490;7.338;2023-04-25T10:32:32;10.80;65.00
2763;DHT22;1389;51.490;7.338;2023-04-25T10:35:19;10.70;64.80
2763;DHT22;1389;51.490;7.338;2023-04-25T10:40:29;10.60;66.20
2763;DHT22;1389;51.490;7.338;2023-04-25T10:42:55;10.70;66.90
2763;DHT22;1389;51.490;7.338;2023-04-25T10:45:51;10.60;66.90
2763;DHT22;1389;51.490;7.338;2023-04-25T10:48:31;10.50;65.60
2763;DHT22;1389;51.490;7.338;2023-04-25T10:51:20;10.40;63.90
2763;DHT22;1389;51.490;7.338;2023-04-25T10:54:08;10.30;64.30
2763;DHT22;1389;51.490;7.338;2023-04-25T10:56:38;10.20;64.50
2763;DHT22;1389;51.490;7.338;2023-04-25T10:59:19;10.10;64.40
2763;DHT22;1389;51.490;7.338;2023-04-25T11:01:56;10.10;64.10
2763;DHT22;1389;51.490;7.338;2023-04-25T11:04:32;10.10;65.00
2763;DHT22;1389;51.490;7.338;2023-04-25T11:07:34;9.90;65.00
2763;DHT22;1389;51.490;7.338;2023-04-25T11:10:03;9.90;65.90
2763;DHT22;1389;51.490;7.338;2023-04-25T11:12:30;9.80;67.00
2763;DHT22;1389;51.490;7.338;2023-04-25T11:15:15;9.60;68.10
2763;DHT22;1389;51.490;7.338;2023-04-25T11:17:41;9.60;68.70
2763;DHT22;1389;51.490;7.338;2023-04-25T11:20:09;9.50;69.20
2763;DHT22;1389;51.490;7.338;2023-04-25T11:22:40;9.50;69.90
2763;DHT22;1389;51.490;7.338;2023-04-25T11:25:08;9.40;69.90
2763;DHT22;1389;51.490;7.338;2023-04-25T11:27:38;9.30;70.70
2763;DHT22;1389;51.490;7.338;2023-04-25T11:30:14;9.30;72.10
2763;DHT22;1389;51.490;7.338;2023-04-25T11:32:41;9.30;72.30
2763;DHT22;1389;51.490;7.338;2023-04-25T11:35:11;9.30;72.10
2763;DHT22;1389;51.490;7.338;2023-04-25T11:37:44;9.30;71.70
2763;DHT22;1389;51.490;7.338;2023-04-25T11:40:12;9.40;71.40
2763;DHT22;1389;51.490;7.338;2023-04-25T11:42:39;9.40;71.30
2763;DHT22;1389;51.490;7.338;2023-04-25T11:45:08;9.50;71.40
2763;DHT22;1389;51.490;7.338;2023-04-25T11:47:35;9.60;69.70
2763;DHT22;1389;51.490;7.338;2023-04-25T11:50:02;9.60;69.30
2763;DHT22;1389;51.490;7.338;2023-04-25T11:52:42;9.70;70.20
2763;DHT22;1389;51.490;7.338;2023-04-25T11:55:10;9.80;69.10
2763;DHT22;1389;51.490;7.338;2023-04-25T11:57:39;9.90;69.10
2763;DHT22;1389;51.490;7.338;2023-04-25T12:00:17;10.00;69.10
2763;DHT22;1389;51.490;7.338;2023-04-25T12:02:50;10.20;69.10
2763;DHT22;1389;51.490;7.338;2023-04-25T12:05:16;10.30;63.70
2763;DHT22;1389;51.490;7.338;2023-04-25T12:07:43;10.50;64.20
2763;DHT22;1389;51.490;7.338;2023-04-25T12:10:11;10.60;63.30
2763;DHT22;1389;51.490;7.338;2023-04-25T12:12:41;10.80;62.30
2763;DHT22;1389;51.490;7.338;2023-04-25T12:15:25;10.90;62.30
2763;DHT22;1389;51.490;7.338;2023-04-25T12:17:53;11.10;62.60
2763;DHT22;1389;51.490;7.338;2023-04-25T12:20:23;11.30;62.20
2763;DHT22;1389;51.490;7.338;2023-04-25T12:22:50;11.40;59.80
2763;DHT22;1389;51.490;7.338;2023-04-25T12:25:39;11.40;58.70
2763;DHT22;1389;51.490;7.338;2023-04-25T12:28:23;11.40;59.20
2763;DHT22;1389;51.490;7.338;2023-04-25T12:30:59;11.40;59.00
2763;DHT22;1389;51.490;7.338;2023-04-25T12:33:28;11.40;60.00
2763;DHT22;1389;51.490;7.338;2023-04-25T12:35:56;11.60;62.70
2763;DHT22;1389;51.490;7.338;2023-04-25T12:38:26;11.80;63.00
2763;DHT22;1389;51.490;7.338;2023-04-25T12:40:53;11.90;60.30
2763;DHT22;1389;51.490;7.338;2023-04-25T12:43:20;11.80;59.80
2763;DHT22;1389;51.490;7.338;2023-04-25T12:45:49;11.80;59.80
2763;DHT22;1389;51.490;7.338;2023-04-25T12:48:17;11.60;58.90
2763;DHT22;1389;51.490;7.338;2023-04-25T12:50:43;11.30;59.10
2763;DHT22;1389;51.490;7.338;2023-04-25T12:53:10;11.20;60.60
2763;DHT22;1389;51.490;7.338;2023-04-25T12:55:37;11.10;61.30
2763;DHT22;1389;51.490;7.338;2023-04-25T12:58:03;11.00;62.30
2763;DHT22;1389;51.490;7.338;2023-04-25T13:00:30;11.00;62.90
2763;DHT22;1389;51.490;7.338;2023-04-25T13:02:56;11.00;62.70
2763;DHT22;1389;51.490;7.338;2023-04-25T13:05:22;11.00;62.50
2763;DHT22;1389;51.490;7.338;2023-04-25T13:07:48;11.00;61.80
2763;DHT22;1389;51.490;7.338;2023-04-25T13:10:14;11.00;62.00
2763;DHT22;1389;51.490;7.338;2023-04-25T13:12:41;10.90;61.90
2763;DHT22;1389;51.490;7.338;2023-04-25T13:15:08;10.90;62.30
2763;DHT22;1389;51.490;7.338;2023-04-25T13:17:35;10.90;62.40
2763;DHT22;1389;51.490;7.338;2023-04-25T13:20:01;10.90;62.40
2763;DHT22;1389;51.490;7.338;2023-04-25T13:22:27;10.80;61.50
2763;DHT22;1389;51.490;7.338;2023-04-25T13:24:53;10.70;60.40
2763;DHT22;1389;51.490;7.338;2023-04-25T13:27:19;10.60;61.10
2763;DHT22;1389;51.490;7.338;2023-04-25T13:29:45;10.50;61.10
2763;DHT22;1389;51.490;7.338;2023-04-25T13:32:11;10.40;61.20
2763;DHT22;1389;51.490;7.338;2023-04-25T13:34:37;10.50;62.30
2763;DHT22;1389;51.490;7.338;2023-04-25T13:37:03;10.60;62.90
2763;DHT22;1389;51.490;7.338;2023-04-25T13:39:29;10.70;61.40
2763;DHT22;1389;51.490;7.338;2023-04-25T13:41:55;10.60;60.90
2763;DHT22;1389;51.490;7.338;2023-04-25T13:44:21;10.60;61.20
2763;DHT22;1389;51.490;7.338;2023-04-25T13:46:47;10.50;61.00
2763;DHT22;1389;51.490;7.338;2023-04-25T13:49:14;10.50;61.10
2763;DHT22;1389;51.490;7.338;2023-04-25T13:51:40;10.50;61.50
2763;DHT22;1389;51.490;7.338;2023-04-25T13:54:06;10.50;63.40
2763;DHT22;1389;51.490;7.338;2023-04-25T13:56:33;10.50;63.20
2763;DHT22;1389;51.490;7.338;2023-04-25T13:58:59;10.50;63.30
2763;DHT22;1389;51.490;7.338;2023-04-25T14:01:25;10.50;64.40
2763;DHT22;1389;51.490;7.338;2023-04-25T14:03:53;10.60;64.50
2763;DHT22;1389;51.490;7.338;2023-04-25T14:06:19;10.70;65.00
2763;DHT22;1389;51.490;7.338;2023-04-25T14:08:49;10.70;65.00
2763;DHT22;1389;51.490;7.338;2023-04-25T14:11:16;11.10;65.20
2763;DHT22;1389;51.490;7.338;2023-04-25T14:13:44;11.40;63.30
2763;DHT22;1389;51.490;7.338;2023-04-25T14:16:10;11.70;63.40
2763;DHT22;1389;51.490;7.338;2023-04-25T14:18:36;11.90;64.10
2763;DHT22;1389;51.490;7.338;2023-04-25T14:21:02;12.20;63.20
2763;DHT22;1389;51.490;7.338;2023-04-25T14:23:29;12.30;61.30
2763;DHT22;1389;51.490;7.338;2023-04-25T14:25:55;12.40;60.40
2763;DHT22;1389;51.490;7.338;2023-04-25T14:28:21;12.40;59.30
2763;DHT22;1389;51.490;7.338;2023-04-25T14:30:47;12.50;60.10
2763;DHT22;1389;51.490;7.338;2023-04-25T14:33:13;12.60;61.60
2763;DHT22;1389;51.490;7.338;2023-04-25T14:35:39;12.80;59.20
2763;DHT22;1389;51.490;7.338;2023-04-25T14:38:05;12.70;57.60
2763;DHT22;1389;51.490;7.338;2023-04-25T14:40:31;12.70;58.40
2763;DHT22;1389;51.490;7.338;2023-04-25T14:42:57;12.80;59.90
2763;DHT22;1389;51.490;7.338;2023-04-25T14:45:24;12.80;57.80
2763;DHT22;1389;51.490;7.338;2023-04-25T14:47:50;12.60;58.20
2763;DHT22;1389;51.490;7.338;2023-04-25T14:50:16;12.60;58.30
2763;DHT22;1389;51.490;7.338;2023-04-25T14:52:43;12.70;60.40
2763;DHT22;1389;51.490;7.338;2023-04-25T14:55:10;13.00;58.50
2763;DHT22;1389;51.490;7.338;2023-04-25T14:57:37;13.10;55.60
2763;DHT22;1389;51.490;7.338;2023-04-25T15:00:06;12.90;56.50
2763;DHT22;1389;51.490;7.338;2023-04-25T15:02:36;12.60;56.50
2763;DHT22;1389;51.490;7.338;2023-04-25T15:05:02;12.30;57.10
2763;DHT22;1389;51.490;7.338;2023-04-25T15:07:29;12.00;56.40
2763;DHT22;1389;51.490;7.338;2023-04-25T15:09:55;12.00;57.60
2763;DHT22;1389;51.490;7.338;2023-04-25T15:12:22;11.90;57.60
2763;DHT22;1389;51.490;7.338;2023-04-25T15:14:48;11.70;58.80
2763;DHT22;1389;51.490;7.338;2023-04-25T15:17:14;11.60;60.80
2763;DHT22;1389;51.490;7.338;2023-04-25T15:19:40;11.40;61.50
2763;DHT22;1389;51.490;7.338;2023-04-25T15:24:33;11.30;63.50
2763;DHT22;1389;51.490;7.338;2023-04-25T15:26:59;11.30;63.50
2763;DHT22;1389;51.490;7.338;2023-04-25T15:29:25;11.30;64.30
2763;DHT22;1389;51.490;7.338;2023-04-25T15:31:51;11.30;64.00
2763;DHT22;1389;51.490;7.338;2023-04-25T15:34:18;11.20;62.80
2763;DHT22;1389;51.490;7.338;2023-04-25T15:36:44;11.10;64.00
2763;DHT22;1389;51.490;7.338;2023-04-25T15:39:10;11.10;63.90
2763;DHT22;1389;51.490;7.338;2023-04-25T15:41:36;11.10;64.50
2763;DHT22;1389;51.490;7.338;2023-04-25T15:44:02;11.20;63.80
2763;DHT22;1389;51.490;7.338;2023-04-25T15:46:28;11.20;64.40
2763;DHT22;1389;51.490;7.338;2023-04-25T15:48:57;11.30;64.10
2763;DHT22;1389;51.490;7.338;2023-04-25T15:51:23;11.50;62.50
2763;DHT22;1389;51.490;7.338;2023-04-25T15:53:49;12.00;61.00
2763;DHT22;1389;51.490;7.338;2023-04-25T15:56:15;12.00;60.80
2763;DHT22;1389;51.490;7.338;2023-04-25T15:58:41;12.00;60.70
2763;DHT22;1389;51.490;7.338;2023-04-25T16:01:07;11.90;58.90
2763;DHT22;1389;51.490;7.338;2023-04-25T16:03:33;11.90;59.30
2763;DHT22;1389;51.490;7.338;2023-04-25T16:05:59;11.90;56.70
2763;DHT22;1389;51.490;7.338;2023-04-25T16:08:26;11.70;58.60
2763;DHT22;1389;51.490;7.338;2023-04-25T16:10:54;11.60;59.70
2763;DHT22;1389;51.490;7.338;2023-04-25T16:13:21;11.50;59.90
2763;DHT22;1389;51.490;7.338;2023-04-25T16:15:48;11.30;60.30
2763;DHT22;1389;51.490;7.338;2023-04-25T16:18:14;11.20;61.40
2763;DHT22;1389;51.490;7.338;2023-04-25T16:20:40;11.10;62.50
2763;DHT22;1389;51.490;7.338;2023-04-25T16:23:08;11.10;63.00
2763;DHT22;1389;51.490;7.338;2023-04-25T16:25:34;10.90;62.80
2763;DHT22;1389;51.490;7.338;2023-04-25T16:28:00;10.90;62.50
2763;DHT22;1389;51.490;7.338;2023-04-25T16:30:26;10.80;62.80